createdAt,value
2018-12-14T00:00:28.188Z,82392.05
2018-12-14T00:05:31.295Z,82391.19
2018-12-14T00:10:34.373Z,82385.97
2018-12-14T00:15:37.483Z,82381.17
2018-12-14T00:20:40.560Z,82382.86
2018-12-14T00:25:43.639Z,82381.70
2018-12-14T00:30:46.717Z,82382.76
2018-12-14T00:35:49.828Z,82386.97
2018-12-14T00:40:52.937Z,82385.34
2018-12-14T00:45:56.044Z,82378.88
2018-12-14T00:50:59.119Z,82376.94
2018-12-14T00:56:02.231Z,82382.83
2018-12-14T01:01:05.315Z,82381.91
2018-12-14T01:06:08.416Z,82379.84
2018-12-14T01:11:11.497Z,82384.78
2018-12-14T01:16:14.572Z,82391.12
2018-12-14T01:21:17.886Z,82393.53
2018-12-14T01:26:21.073Z,82390.85
2018-12-14T01:31:24.152Z,82391.45
2018-12-14T01:36:27.386Z,82392.77
2018-12-14T01:41:30.459Z,82396.28
2018-12-14T01:46:33.968Z,82398.97
2018-12-14T01:51:37.040Z,82396.78
2018-12-14T01:56:40.197Z,82395.29
2018-12-14T02:01:43.847Z,82398.10
2018-12-14T02:06:46.922Z,82395.22
2018-12-14T02:11:50.000Z,82395.22
2018-12-14T02:16:53.254Z,82398.07
2018-12-14T02:21:56.335Z,82399.23
2018-12-14T02:26:59.407Z,82406.30
2018-12-14T02:32:02.551Z,82406.80
2018-12-14T02:37:05.755Z,82406.27
2018-12-14T02:42:08.941Z,82404.71
2018-12-14T02:47:12.104Z,82402.20
2018-12-14T02:52:15.179Z,82402.92
2018-12-14T02:57:18.283Z,82397.97
2018-12-14T03:02:21.502Z,82396.91
2018-12-14T03:07:24.656Z,82396.58
2018-12-14T03:12:27.743Z,82391.61
2018-12-14T03:17:30.900Z,82394.16
2018-12-14T03:22:34.310Z,82391.38
2018-12-14T03:27:37.380Z,82393.50
2018-12-14T03:32:40.522Z,82389.49
2018-12-14T03:37:43.691Z,82386.73
2018-12-14T03:42:46.774Z,82387.98
2018-12-14T03:47:49.857Z,82378.95
2018-12-14T03:52:52.928Z,82379.34
2018-12-14T03:57:56.339Z,82373.02
2018-12-14T04:02:59.751Z,82376.47
2018-12-14T04:08:02.831Z,82373.78
2018-12-14T04:13:05.938Z,82378.42
2018-12-14T04:18:09.062Z,82378.09
2018-12-14T04:23:12.227Z,82372.05
2018-12-14T04:28:15.310Z,82372.69
2018-12-14T04:33:18.764Z,82378.25
2018-12-14T04:38:21.823Z,82376.63
2018-12-14T04:43:24.943Z,82380.44
2018-12-14T04:48:28.040Z,82374.11
2018-12-14T04:53:31.150Z,82378.05
2018-12-14T04:58:34.235Z,82370.30
2018-12-14T05:03:37.316Z,82372.05
2018-12-14T05:08:40.424Z,82368.94
2018-12-14T05:13:43.509Z,82368.77
2018-12-14T05:18:46.585Z,82368.31
2018-12-14T05:23:49.708Z,82372.98
2018-12-14T05:28:52.790Z,82371.33
2018-12-14T05:33:55.876Z,82370.23
2018-12-14T05:38:58.995Z,82374.17
2018-12-14T05:44:02.251Z,82375.67
2018-12-14T05:49:05.372Z,82369.87
2018-12-14T05:54:08.449Z,82370.23
2018-12-14T05:59:11.535Z,82373.84
2018-12-14T06:04:14.630Z,82373.02
2018-12-14T06:09:17.702Z,82367.84
2018-12-14T06:14:20.929Z,82372.58
2018-12-14T06:19:24.045Z,82386.07
2018-12-14T06:24:27.117Z,82381.70
2018-12-14T06:29:30.200Z,82387.95
2018-12-14T06:34:33.309Z,82385.73
2018-12-14T06:39:36.427Z,82379.08
2018-12-14T06:44:39.526Z,82381.53
2018-12-14T06:49:42.612Z,82383.62
2018-12-14T06:54:45.688Z,82380.11
2018-12-14T06:59:48.913Z,82379.68
2018-12-14T07:04:51.999Z,82383.72
2018-12-14T07:09:55.116Z,82383.12
2018-12-14T07:14:58.236Z,82377.75
2018-12-14T07:20:01.322Z,82379.95
2018-12-14T07:25:04.870Z,82382.53
2018-12-14T07:30:08.095Z,82378.98
2018-12-14T07:35:11.177Z,82379.95
2018-12-14T07:40:14.282Z,82376.77
2018-12-14T07:45:17.365Z,82381.83
2018-12-14T07:50:20.460Z,82378.19
2018-12-14T07:55:23.540Z,82371.98
2018-12-14T08:00:26.657Z,82369.14
2018-12-14T08:05:29.745Z,82375.56
2018-12-14T08:10:32.863Z,82373.41
2018-12-14T08:15:36.055Z,82372.95
2018-12-14T08:20:39.258Z,82372.75
2018-12-14T08:25:42.321Z,82369.41
2018-12-14T08:30:45.411Z,82373.18
2018-12-14T08:35:48.499Z,82371.63
2018-12-14T08:40:51.679Z,82377.63
2018-12-14T08:45:54.774Z,82382.33
2018-12-14T08:50:57.921Z,82383.55
2018-12-14T08:56:01.121Z,82383.09
2018-12-14T09:01:04.241Z,82382.89
2018-12-14T09:06:07.333Z,82387.59
2018-12-14T09:11:10.431Z,82394.80
2018-12-14T09:16:13.511Z,82395.62
2018-12-14T09:21:16.593Z,82393.47
2018-12-14T09:26:19.710Z,82393.50
2018-12-14T09:31:22.877Z,82394.36
2018-12-14T09:36:25.994Z,82395.81
2018-12-14T09:41:29.095Z,82397.11
2018-12-14T09:46:37.025Z,82409.58
2018-12-14T09:51:37.277Z,82405.97
2018-12-14T09:56:40.389Z,82405.11
2018-12-14T10:01:43.468Z,82410.91
2018-12-14T10:06:47.419Z,82402.17
2018-12-14T10:11:55.110Z,82402.03
2018-12-14T10:16:55.701Z,82407.23
2018-12-14T10:21:58.785Z,82399.56
2018-12-14T10:27:01.878Z,82405.38
2018-12-14T10:32:05.016Z,82410.51
2018-12-14T10:37:08.121Z,82412.09
2018-12-14T10:42:11.276Z,82421.35
2018-12-14T10:47:14.364Z,82420.62
2018-12-14T10:52:17.508Z,82430.34
2018-12-14T10:57:20.661Z,82438.32
2018-12-14T11:02:23.782Z,82432.66
2018-12-14T11:07:26.868Z,82442.23
2018-12-14T11:12:29.948Z,82441.11
2018-12-14T11:17:33.047Z,82458.86
2018-12-14T11:22:36.129Z,82432.23
2018-12-14T11:27:39.241Z,82440.11
2018-12-14T11:32:42.305Z,82444.89
2018-12-14T11:37:45.383Z,82455.03
2018-12-14T11:42:48.480Z,82459.85
2018-12-14T11:47:51.560Z,82456.83
2018-12-14T11:52:54.765Z,82444.92
2018-12-14T11:57:57.854Z,82460.21
2018-12-14T12:03:00.956Z,82455.28
2018-12-14T12:08:04.124Z,82463.00
2018-12-14T12:13:07.243Z,82451.98
2018-12-14T12:18:10.333Z,82456.77
2018-12-14T12:23:13.421Z,82457.53
2018-12-14T12:28:16.515Z,82462.56
2018-12-14T12:33:19.594Z,82465.13
2018-12-14T12:38:22.667Z,82462.70
2018-12-14T12:43:25.815Z,82451.25
2018-12-14T12:48:28.887Z,82451.55
2018-12-14T12:53:32.004Z,82441.14
2018-12-14T12:58:35.100Z,82444.82
2018-12-14T13:03:38.182Z,82450.29
2018-12-14T13:08:41.285Z,82439.81
2018-12-14T13:13:44.369Z,82444.79
2018-12-14T13:18:47.455Z,82443.27
2018-12-14T13:23:50.587Z,82446.71
2018-12-14T13:28:53.683Z,82453.14
2018-12-14T13:33:56.763Z,82448.34
2018-12-14T13:38:59.823Z,82441.81
2018-12-14T13:44:02.915Z,82450.55
2018-12-14T13:49:06.272Z,82451.45
2018-12-14T13:54:09.356Z,82450.69
2018-12-14T13:59:12.439Z,82448.11
2018-12-14T14:04:15.584Z,82445.42
2018-12-14T14:09:18.712Z,82449.36
2018-12-14T14:14:21.831Z,82444.62
2018-12-14T14:19:25.758Z,82454.91
2018-12-14T14:24:29.094Z,82448.67
2018-12-14T14:29:32.155Z,82451.52
2018-12-14T14:34:35.238Z,82447.61
2018-12-14T14:39:38.557Z,82448.27
2018-12-14T14:44:41.650Z,82450.75
2018-12-14T14:49:44.731Z,82446.52
2018-12-14T14:54:49.811Z,82417.24
2018-12-14T14:59:52.876Z,82434.08
2018-12-14T15:04:56.879Z,82436.86
2018-12-14T15:10:00.029Z,82434.55
2018-12-14T15:15:06.533Z,82437.79
2018-12-14T15:20:08.449Z,82431.96
2018-12-14T15:25:11.872Z,82429.08
2018-12-14T15:30:14.995Z,82430.00
2018-12-14T15:35:18.121Z,82426.59
2018-12-14T15:40:21.308Z,82425.59
2018-12-14T15:45:24.387Z,82418.73
2018-12-14T15:50:27.494Z,82417.50
2018-12-14T15:55:30.563Z,82419.83
2018-12-14T16:00:33.781Z,82410.31
2018-12-14T16:05:36.861Z,82413.72
2018-12-14T16:10:39.968Z,82407.27
2018-12-14T16:15:43.146Z,82405.61
2018-12-14T16:20:46.294Z,82408.66
2018-12-14T16:25:49.471Z,82404.11
2018-12-14T16:30:52.617Z,82407.27
2018-12-14T16:35:56.016Z,82399.46
2018-12-14T16:40:59.484Z,82400.62
2018-12-14T16:46:02.563Z,82405.84
2018-12-14T16:51:05.817Z,82404.19
2018-12-14T16:56:09.840Z,82406.03
2018-12-14T17:01:13.232Z,82402.36
2018-12-14T17:06:16.433Z,82394.26
2018-12-14T17:11:19.576Z,82399.95
2018-12-14T17:16:22.715Z,82392.94
2018-12-14T17:21:25.924Z,82397.44
2018-12-14T17:26:29.113Z,82394.52
2018-12-14T17:31:32.184Z,82393.77
2018-12-14T17:36:35.564Z,82396.77
2018-12-14T17:41:38.810Z,82399.46
2018-12-14T17:46:42.040Z,82393.33
2018-12-14T17:51:45.279Z,82399.09
2018-12-14T17:56:48.411Z,82398.23
2018-12-14T18:01:51.549Z,82396.61
2018-12-14T18:06:54.625Z,82392.84
2018-12-14T18:11:57.692Z,82391.11
2018-12-14T18:17:00.789Z,82391.55
2018-12-14T18:22:04.016Z,82387.80
2018-12-14T18:27:07.164Z,82387.36
2018-12-14T18:32:10.242Z,82390.81
2018-12-14T18:37:13.713Z,82400.45
2018-12-14T18:42:16.840Z,82396.52
2018-12-14T18:47:20.032Z,82399.43
2018-12-14T18:52:23.098Z,82398.73
2018-12-14T18:57:26.492Z,82393.77
2018-12-14T19:02:29.563Z,82398.00
2018-12-14T19:07:32.631Z,82395.95
2018-12-14T19:12:35.887Z,82381.20
2018-12-14T19:17:39.017Z,82394.20
2018-12-14T19:22:42.146Z,82393.10
2018-12-14T19:27:45.270Z,82392.38
2018-12-14T19:32:48.453Z,82397.41
2018-12-14T19:37:51.619Z,82397.70
2018-12-14T19:42:54.770Z,82395.16
2018-12-14T19:47:57.901Z,82390.62
2018-12-14T19:53:01.049Z,82384.75
2018-12-14T19:58:04.261Z,82389.33
2018-12-14T20:03:07.455Z,82385.94
2018-12-14T20:08:12.337Z,82382.20
2018-12-14T20:13:15.542Z,82383.55
2018-12-14T20:18:18.696Z,82378.98
2018-12-14T20:23:21.835Z,82382.95
2018-12-14T20:28:24.963Z,82380.44
2018-12-14T20:33:28.086Z,82378.35
2018-12-14T20:38:31.199Z,82374.44
2018-12-14T20:43:34.328Z,82376.83
2018-12-14T20:48:37.444Z,82366.75
2018-12-14T20:53:40.575Z,82364.53
2018-12-14T20:58:43.696Z,82362.95
2018-12-14T21:03:46.806Z,82363.41
2018-12-14T21:08:49.901Z,82365.69
2018-12-14T21:13:53.012Z,82366.72
2018-12-14T21:18:56.112Z,82366.66
2018-12-14T21:23:59.242Z,82359.46
2018-12-14T21:29:02.381Z,82350.55
2018-12-14T21:34:05.528Z,82348.42
2018-12-14T21:39:08.625Z,82349.31
2018-12-14T21:44:11.712Z,82347.13
2018-12-14T21:49:14.801Z,82340.02
2018-12-14T21:54:17.890Z,82338.66
2018-12-14T21:59:20.987Z,82342.43
2018-12-14T22:04:24.096Z,82347.30
2018-12-14T22:09:27.172Z,82343.22
2018-12-14T22:14:30.353Z,82328.24
2018-12-14T22:19:33.445Z,82326.55
2018-12-14T22:24:36.539Z,82329.89
2018-12-14T22:29:39.624Z,82332.91
2018-12-14T22:34:42.711Z,82333.53
2018-12-14T22:39:45.805Z,82332.28
2018-12-14T22:44:49.000Z,82328.30
2018-12-14T22:49:52.092Z,82335.89
2018-12-14T22:54:55.183Z,82328.34
2018-12-14T22:59:58.356Z,82332.25
2018-12-14T23:05:01.445Z,82326.75
2018-12-14T23:10:05.588Z,82326.66
2018-12-14T23:15:08.739Z,82322.04
2018-12-14T23:20:11.851Z,82325.63
2018-12-14T23:25:14.944Z,82331.42
2018-12-14T23:30:18.030Z,82326.69
2018-12-14T23:35:21.119Z,82311.64
2018-12-14T23:40:24.204Z,82310.75
2018-12-14T23:45:27.300Z,82306.58
2018-12-14T23:50:30.382Z,82308.42
2018-12-14T23:55:33.465Z,82307.00
